Time;durP1;ratioP1;P1;durP2;ratioP2;P2;SDS_P1;SDS_P2;PMS_P1;PMS_P2;Temp;Humidity;BMP_temperature;BMP_pressure;BME280_temperature;BME280_humidity;BME280_pressure;Samples;Min_cycle;Max_cycle;Signal;HPM_P1;HPM_P2
2021/11/17 02:26:47;;;;;;;;;;;;;;;;;;5090656;28;19935;-66
2021/11/17 02:29:14;;;;;;;;;;;;;;;;;;5093762;28;19924;-64
2021/11/17 02:31:41;;;;;;;;;;;;;;;;;;5093264;28;19931;-65
2021/11/17 02:34:08;;;;;;;;;;;;;;;;;;5088514;28;19928;-66
2021/11/17 02:36:35;;;;;;;;;;;;;;;;;;5094550;28;19970;-66
2021/11/17 02:39:02;;;;;;;;;;;;;;;;;;5090682;28;19931;-65
2021/11/17 02:41:29;;;;;;;;;;;;;;;;;;5093936;28;19983;-65
2021/11/17 02:43:56;;;;;;;;;;;;;;;;;;5090008;28;19924;-66
2021/11/17 02:46:23;;;;;;;;;;;;;;;;;;5094016;28;20002;-66
2021/11/17 02:48:50;;;;;;;;;;;;;;;;;;5094985;28;19924;-66
2021/11/17 02:51:17;;;;;;;;;;;;;;;;;;5092022;28;20300;-65
2021/11/17 02:53:44;;;;;;;;;;;;;;;;;;5086828;28;19932;-65
2021/11/17 02:56:11;;;;;;;;;;;;;;;;;;5094714;28;19924;-65
2021/11/17 02:58:38;;;;;;;;;;;;;;;;;;5086236;28;19971;-66
2021/11/17 03:01:05;;;;;;;;;;;;;;;;;;5090755;28;19935;-66
2021/11/17 03:03:32;;;;;;;;;;;;;;;;;;5088999;28;19932;-66
2021/11/17 03:05:59;;;;;;;;;;;;;;;;;;5090099;28;19989;-65
2021/11/17 03:08:26;;;;;;;;;;;;;;;;;;5092276;28;19931;-65
2021/11/17 03:10:53;;;;;;;;;;;;;;;;;;5095519;28;20147;-67
2021/11/17 03:13:20;;;;;;;;;;;;;;;;;;5088707;28;20472;-65
2021/11/17 03:15:47;;;;;;;;;;;;;;;;;;5092487;28;19924;-65
2021/11/17 03:18:14;;;;;;;;;;;;;;;;;;5091457;28;19924;-66
2021/11/17 03:20:41;;;;;;;;;;;;;;;;;;5095075;28;19940;-66
2021/11/17 03:23:07;;;;;;;;;;;;;;;;;;5089631;28;20002;-64
2021/11/17 03:25:34;;;;;;;;;;;;;;;;;;5091533;28;19924;-66
2021/11/17 03:28:01;;;;;;;;;;;;;;;;;;5094699;28;20199;-67
2021/11/17 03:30:28;;;;;;;;;;;;;;;;;;5096965;28;19924;-66
2021/11/17 03:32:55;;;;;;;;;;;;;;;;;;5087803;28;19988;-67
2021/11/17 03:35:22;;;;;;;;;;;;;;;;;;5095447;28;19930;-65
2021/11/17 03:37:49;;;;;;;;;;;;;;;;;;5094692;28;19938;-66
2021/11/17 03:40:16;;;;;;;;;;;;;;;;;;5100933;28;19928;-65
2021/11/17 03:42:44;;;;;;;;;;;;;;;;;;5097580;28;19928;-65
2021/11/17 03:45:10;;;;;;;;;;;;;;;;;;5097381;28;20449;-66
2021/11/17 03:47:37;;;;;;;;;;;;;;;;;;5098566;28;19931;-67
2021/11/17 03:50:04;;;;;;;;;;;;;;;;;;5098751;28;20173;-65
2021/11/17 03:52:31;;;;;;;;;;;;;;;;;;5093054;28;19934;-66
2021/11/17 03:54:58;;;;;;;;;;;;;;;;;;5086198;28;19939;-67
2021/11/17 03:57:25;;;;;;;;;;;;;;;;;;5088161;28;19970;-65
2021/11/17 03:59:52;;;;;;;;;;;;;;;;;;5088694;28;19979;-66
2021/11/17 04:02:19;;;;;;;;;;;;;;;;;;5096146;28;19927;-65
2021/11/17 04:04:46;;;;;;;;;;;;;;;;;;5097216;28;19931;-66
2021/11/17 04:07:13;;;;;;;;;;;;;;;;;;5100797;28;19924;-65
2021/11/17 04:09:40;;;;;;;;;;;;;;;;;;5091103;28;19934;-67
2021/11/17 04:12:07;;;;;;;;;;;;;;;;;;5093398;28;20023;-65
2021/11/17 04:14:34;;;;;;;;;;;;;;;;;;5097263;28;19967;-66
2021/11/17 04:17:01;;;;;;;;;;;;;;;;;;5093907;28;19925;-63
2021/11/17 04:19:28;;;;;;;;;;;;;;;;;;5091374;28;20007;-65
2021/11/17 04:21:57;;;;;;;;;;;;;;;;;;5092300;28;19924;-64
2021/11/17 04:24:24;;;;;;;;;;;;;;;;;;5091217;28;19963;-65
2021/11/17 04:26:51;;;;;;;;;;;;;;;;;;5083938;28;20324;-65
2021/11/17 04:29:18;;;;;;;;;;;;;;;;;;5087724;28;19928;-65
2021/11/17 04:31:45;;;;;;;;;;;;;;;;;;5088316;28;19930;-65
2021/11/17 04:34:12;;;;;;;;;;;;;;;;;;5086202;28;19924;-65
2021/11/17 04:36:39;;;;;;;;;;;;;;;;;;5090135;28;19930;-65
2021/11/17 04:39:06;;;;;;;;;;;;;;;;;;5080016;28;19928;-65
2021/11/17 04:41:32;;;;;;;;;;;;;;;;;;5088197;28;19924;-65
2021/11/17 04:43:59;;;;;;;;;;;;;;;;;;5084816;28;19928;-65
2021/11/17 04:46:26;;;;;;;;;;;;;;;;;;5083478;28;19932;-65
2021/11/17 04:48:53;;;;;;;;;;;;;;;;;;5086422;28;19924;-64
2021/11/17 04:51:20;;;;;;;;;;;;;;;;;;5082978;28;19928;-65
2021/11/17 04:53:47;;;;;;;;;;;;;;;;;;5085579;28;20011;-65
2021/11/17 04:56:14;;;;;;;;;;;;;;;;;;5087755;28;20304;-66
2021/11/17 04:58:41;;;;;;;;;;;;;;;;;;5082528;28;19924;-65
2021/11/17 05:01:08;;;;;;;;;;;;;;;;;;5083379;28;19932;-64
2021/11/17 05:03:35;;;;;;;;;;;;;;;;;;5088180;28;19930;-65
2021/11/17 05:06:02;;;;;;;;;;;;;;;;;;5081358;28;19924;-67
2021/11/17 05:08:29;;;;;;;;;;;;;;;;;;5080927;28;20003;-64
2021/11/17 05:10:56;;;;;;;;;;;;;;;;;;5077305;28;19924;-64
2021/11/17 05:13:23;;;;;;;;;;;;;;;;;;5079834;28;19958;-65
2021/11/17 05:15:50;;;;;;;;;;;;;;;;;;5078279;28;19963;-64
2021/11/17 05:18:17;;;;;;;;;;;;;;;;;;5084225;28;19925;-64
2021/11/17 05:20:44;;;;;;;;;;;;;;;;;;5083892;28;19924;-65
2021/11/17 05:23:11;;;;;;;;;;;;;;;;;;5080843;28;20368;-65
2021/11/17 05:25:38;;;;;;;;;;;;;;;;;;5081914;28;20479;-66
2021/11/17 05:28:05;;;;;;;;;;;;;;;;;;5082467;28;20342;-66
2021/11/17 05:30:32;;;;;;;;;;;;;;;;;;5085038;28;19924;-66
2021/11/17 05:32:59;;;;;;;;;;;;;;;;;;5083427;28;20191;-66
2021/11/17 05:35:26;;;;;;;;;;;;;;;;;;5083785;28;19924;-66
2021/11/17 05:37:53;;;;;;;;;;;;;;;;;;5088372;28;19928;-65
2021/11/17 05:40:20;;;;;;;;;;;;;;;;;;5090657;28;19928;-64
2021/11/17 05:42:47;;;;;;;;;;;;;;;;;;5076401;28;20403;-65
2021/11/17 05:45:13;;;;;;;;;;;;;;;;;;5080100;28;20430;-65
2021/11/17 05:47:40;;;;;;;;;;;;;;;;;;5077284;28;19935;-66
2021/11/17 05:50:07;;;;;;;;;;;;;;;;;;5077707;28;19928;-66
2021/11/17 05:52:34;;;;;;;;;;;;;;;;;;5089318;28;19931;-65
2021/11/17 05:55:04;;;;;;;;;;;;;;;;;;5088932;28;20307;-66
2021/11/17 05:57:30;;;;;;;;;;;;;;;;;;5088687;28;20376;-66
2021/11/17 05:59:57;;;;;;;;;;;;;;;;;;5076940;28;19924;-65
2021/11/17 06:02:24;;;;;;;;;;;;;;;;;;5085648;28;20010;-65
2021/11/17 06:04:53;;;;;;;;;;;;;;;;;;5078935;28;19924;-65
2021/11/17 06:07:20;;;;;;;;;;;;;;;;;;5083988;28;20007;-66
2021/11/17 06:09:47;;;;;;;;;;;;;;;;;;5092568;28;19923;-66
2021/11/17 06:12:14;;;;;;;;;;;;;;;;;;5079463;28;20398;-66
2021/11/17 06:14:40;;;;;;;;;;;;;;;;;;5081783;28;19931;-66
2021/11/17 06:17:07;;;;;;;;;;;;;;;;;;5077525;28;19934;-66
2021/11/17 06:19:34;;;;;;;;;;;;;;;;;;5080744;28;20003;-66
2021/11/17 06:22:01;;;;;;;;;;;;;;;;;;5079183;28;19924;-65
2021/11/17 06:24:28;;;;;;;;;;;;;;;;;;5089238;28;19928;-65
2021/11/17 06:26:55;;;;;;;;;;;;;;;;;;5085015;28;20330;-65
2021/11/17 06:29:22;;;;;;;;;;;;;;;;;;5086954;28;19924;-65
2021/11/17 06:31:49;;;;;;;;;;;;;;;;;;5089643;28;19931;-67
2021/11/17 06:34:16;;;;;;;;;;;;;;;;;;5089495;28;19924;-66
2021/11/17 06:36:43;;;;;;;;;;;;;;;;;;5086639;28;19946;-65
2021/11/17 06:39:10;;;;;;;;;;;;;;;;;;5086186;28;20318;-66
2021/11/17 06:41:37;;;;;;;;;;;;;;;;;;5078216;28;19928;-65
2021/11/17 06:44:04;;;;;;;;;;;;;;;;;;5084353;28;19924;-66
2021/11/17 06:46:31;;;;;;;;;;;;;;;;;;5086787;28;19928;-66
2021/11/17 06:48:57;;;;;;;;;;;;;;;;;;5078499;28;19932;-65
2021/11/17 06:51:24;;;;;;;;;;;;;;;;;;5080086;28;19928;-66
2021/11/17 06:53:51;;;;;;;;;;;;;;;;;;5089568;28;19931;-65
2021/11/17 06:56:20;;;;;;;;;;;;;;;;;;5090210;28;19924;-65
2021/11/17 06:58:47;;;;;;;;;;;;;;;;;;5077299;28;19968;-65
2021/11/17 07:01:14;;;;;;;;;;;;;;;;;;5085749;28;19972;-67
2021/11/17 07:03:41;;;;;;;;;;;;;;;;;;5079158;28;19931;-66
2021/11/17 07:06:08;;;;;;;;;;;;;;;;;;5078218;28;19947;-66
2021/11/17 07:08:39;;;;;;;;;;;;;;;;;;5088913;28;19928;-66
2021/11/17 07:11:06;;;;;;;;;;;;;;;;;;5088869;28;19981;-66
2021/11/17 07:13:33;;;;;;;;;;;;;;;;;;5083131;28;19923;-65
2021/11/17 07:16:02;;;;;;;;;;;;;;;;;;5090919;28;19924;-66
2021/11/17 07:18:29;;;;;;;;;;;;;;;;;;5079330;28;19982;-65
2021/11/17 07:20:55;;;;;;;;;;;;;;;;;;5082732;28;19928;-65
2021/11/17 07:23:23;;;;;;;;;;;;;;;;;;5085439;28;19931;-65
2021/11/17 07:25:49;;;;;;;;;;;;;;;;;;5086994;28;19928;-66
2021/11/17 07:28:16;;;;;;;;;;;;;;;;;;5090883;28;19924;-66
2021/11/17 07:30:43;;;;;;;;;;;;;;;;;;5090443;28;19924;-66
2021/11/17 07:33:11;;;;;;;;;;;;;;;;;;5087728;28;19928;-65
2021/11/17 07:35:38;;;;;;;;;;;;;;;;;;5090090;28;20316;-65
2021/11/17 07:38:05;;;;;;;;;;;;;;;;;;5083188;28;19935;-66
2021/11/17 07:40:32;;;;;;;;;;;;;;;;;;5088347;28;19924;-65
2021/11/17 07:42:59;;;;;;;;;;;;;;;;;;5084074;28;19924;-65
2021/11/17 07:45:26;;;;;;;;;;;;;;;;;;5081586;28;20011;-65
2021/11/17 07:47:53;;;;;;;;;;;;;;;;;;5078840;28;19963;-66
2021/11/17 07:50:20;;;;;;;;;;;;;;;;;;5078066;28;19947;-66
2021/11/17 07:52:47;;;;;;;;;;;;;;;;;;5087211;28;19930;-65
2021/11/17 07:55:14;;;;;;;;;;;;;;;;;;5089228;28;19924;-65
2021/11/17 07:57:41;;;;;;;;;;;;;;;;;;5087787;28;19928;-65
2021/11/17 08:00:08;;;;;;;;;;;;;;;;;;5080044;28;20277;-66
2021/11/17 08:02:37;;;;;;;;;;;;;;;;;;5084105;28;20295;-66
2021/11/17 08:05:04;;;;;;;;;;;;;;;;;;5084621;28;19925;-73
2021/11/17 08:07:31;;;;;;;;;;;;;;;;;;5088173;28;19928;-66
2021/11/17 08:09:58;;;;;;;;;;;;;;;;;;5078646;28;19978;-64
2021/11/17 08:12:25;;;;;;;;;;;;;;;;;;5078209;28;20316;-65
2021/11/17 08:14:54;;;;;;;;;;;;;;;;;;5091425;28;20018;-65
2021/11/17 08:17:21;;;;;;;;;;;;;;;;;;5087025;28;19978;-65
2021/11/17 08:19:48;;;;;;;;;;;;;;;;;;5086689;28;19998;-65
2021/11/17 08:22:16;;;;;;;;;;;;;;;;;;5088511;28;19924;-65
2021/11/17 08:24:44;;;;;;;;;;;;;;;;;;5086212;28;19946;-65
2021/11/17 08:27:12;;;;;;;;;;;;;;;;;;5093531;28;20376;-64
2021/11/17 08:29:39;;;;;;;;;;;;;;;;;;5092358;28;19924;-65
2021/11/17 08:32:06;;;;;;;;;;;;;;;;;;5080523;28;19932;-65
2021/11/17 08:34:33;;;;;;;;;;;;;;;;;;5092024;28;19931;-66
2021/11/17 08:37:00;;;;;;;;;;;;;;;;;;5084518;28;20382;-66
2021/11/17 08:39:27;;;;;;;;;;;;;;;;;;5090736;28;20048;-66
2021/11/17 08:41:54;;;;;;;;;;;;;;;;;;5088852;28;20303;-64
2021/11/17 08:44:21;;;;;;;;;;;;;;;;;;5089754;28;20306;-65
2021/11/17 08:46:48;;;;;;;;;;;;;;;;;;5090619;28;19924;-65
2021/11/17 08:49:15;;;;;;;;;;;;;;;;;;5092147;28;19924;-65
2021/11/17 08:51:42;;;;;;;;;;;;;;;;;;5085290;28;19924;-65
2021/11/17 08:54:08;;;;;;;;;;;;;;;;;;5091838;28;19930;-65
2021/11/17 08:56:36;;;;;;;;;;;;;;;;;;5088250;28;19931;-65
2021/11/17 08:59:02;;;;;;;;;;;;;;;;;;5085188;28;19924;-65
2021/11/17 09:01:29;;;;;;;;;;;;;;;;;;5088627;28;19924;-65
2021/11/17 09:03:56;;;;;;;;;;;;;;;;;;5091901;28;19924;-65
2021/11/17 09:06:23;;;;;;;;;;;;;;;;;;5091347;28;19939;-64
2021/11/17 09:08:50;;;;;;;;;;;;;;;;;;5086646;28;19928;-65
2021/11/17 09:11:17;;;;;;;;;;;;;;;;;;5087762;28;20295;-65
2021/11/17 09:13:44;;;;;;;;;;;;;;;;;;5079619;28;20010;-65
2021/11/17 09:16:11;;;;;;;;;;;;;;;;;;5081322;28;19924;-65
2021/11/17 09:18:38;;;;;;;;;;;;;;;;;;5083113;28;19932;-65
2021/11/17 09:21:05;;;;;;;;;;;;;;;;;;5079685;28;19924;-65
2021/11/17 09:23:32;;;;;;;;;;;;;;;;;;5084049;28;19924;-65
2021/11/17 09:25:59;;;;;;;;;;;;;;;;;;5081871;28;19924;-65
2021/11/17 09:28:26;;;;;;;;;;;;;;;;;;5083675;28;19950;-65
2021/11/17 09:30:53;;;;;;;;;;;;;;;;;;5089837;28;19924;-65
2021/11/17 09:33:20;;;;;;;;;;;;;;;;;;5082324;28;20561;-65
2021/11/17 09:35:47;;;;;;;;;;;;;;;;;;5085333;28;19924;-65
2021/11/17 09:38:14;;;;;;;;;;;;;;;;;;5084562;28;20533;-65
2021/11/17 09:40:41;;;;;;;;;;;;;;;;;;5079144;28;20262;-65
2021/11/17 09:43:08;;;;;;;;;;;;;;;;;;5085492;28;20011;-65
2021/11/17 09:45:35;;;;;;;;;;;;;;;;;;5090573;28;19924;-65
2021/11/17 09:48:02;;;;;;;;;;;;;;;;;;5083555;28;19930;-64
2021/11/17 09:50:30;;;;;;;;;;;;;;;;;;5090341;28;19924;-65
2021/11/17 09:52:56;;;;;;;;;;;;;;;;;;5086043;28;20391;-65
2021/11/17 09:55:23;;;;;;;;;;;;;;;;;;5082930;28;19924;-65
2021/11/17 09:57:50;;;;;;;;;;;;;;;;;;5083323;28;19967;-65
2021/11/17 10:00:17;;;;;;;;;;;;;;;;;;5090694;28;19924;-64
2021/11/17 10:02:44;;;;;;;;;;;;;;;;;;5078863;28;20318;-64
2021/11/17 10:05:11;;;;;;;;;;;;;;;;;;5085500;28;19924;-64
2021/11/17 10:13:07;;;;;;;;;;;;;;;;;;5085106;28;19924;-64
2021/11/17 10:15:35;;;;;;;;;;;;;;;;;;5078620;28;19943;-64
2021/11/17 10:18:06;;;;;;;;;;;;;;;;;;5086524;28;20374;-65
2021/11/17 10:20:34;;;;;;;;;;;;;;;;;;5090995;28;19931;-64
2021/11/17 10:23:01;;;;;;;;;;;;;;;;;;5085780;28;20023;-64
2021/11/17 10:25:29;;;;;;;;;;;;;;;;;;5092524;22;19946;-66
2021/11/17 10:27:56;;;;;;;;;;;;;;;;;;5078927;28;19970;-66
2021/11/17 10:30:26;;;;;;;;;;;;;;;;;;5083742;28;19928;-66
2021/11/17 10:32:53;;;;;;;;;;;;;;;;;;5086712;28;19977;-65
2021/11/17 10:35:20;;;;;;;;;;;;;;;;;;5068049;28;19925;-66
2021/11/17 10:37:47;;;;;;;;;;;;;;;;;;5067988;28;19924;-65
2021/11/17 10:40:14;;;;;;;;;;;;;;;;;;5064086;28;20335;-65
2021/11/17 10:42:41;;;;;;;;;;;;;;;;;;5068751;28;19947;-65
2021/11/17 10:45:08;;;;;;;;;;;;;;;;;;5064034;28;19924;-65
2021/11/17 10:47:35;;;;;;;;;;;;;;;;;;5066241;28;19925;-66
2021/11/17 10:50:02;;;;;;;;;;;;;;;;;;5066689;28;19970;-66
2021/11/17 10:52:29;;;;;;;;;;;;;;;;;;5065986;28;20038;-65
2021/11/17 10:54:56;;;;;;;;;;;;;;;;;;5067283;28;20407;-66
2021/11/17 10:57:23;;;;;;;;;;;;;;;;;;5055485;28;20296;-66
2021/11/17 10:59:50;;;;;;;;;;;;;;;;;;5066124;28;19947;-66
2021/11/17 11:02:17;;;;;;;;;;;;;;;;;;5070242;28;19930;-66
2021/11/17 11:04:44;;;;;;;;;;;;;;;;;;5071122;28;19925;-66
2021/11/17 11:07:11;;;;;;;;;;;;;;;;;;5071015;28;20384;-67
2021/11/17 11:09:38;;;;;;;;;;;;;;;;;;5068864;28;20296;-66
2021/11/17 11:12:05;;;;;;;;;;;;;;;;;;5064487;28;19924;-66
2021/11/17 11:14:32;;;;;;;;;;;;;;;;;;5070253;28;19924;-67
2021/11/17 11:16:59;;;;;;;;;;;;;;;;;;5071185;28;19924;-66
2021/11/17 11:19:26;;;;;;;;;;;;;;;;;;5066001;28;19932;-66
2021/11/17 11:21:53;;;;;;;;;;;;;;;;;;5065146;28;19929;-66
2021/11/17 11:24:20;;;;;;;;;;;;;;;;;;5078751;28;19929;-65
2021/11/17 11:26:47;;;;;;;;;;;;;;;;;;5083573;28;20182;-66
2021/11/17 11:29:14;;;;;;;;;;;;;;;;;;5080678;28;19952;-65
2021/11/17 11:31:41;;;;;;;;;;;;;;;;;;5076825;28;20433;-67
2021/11/17 11:34:08;;;;;;;;;;;;;;;;;;5086808;28;19924;-65
2021/11/17 11:36:36;;;;;;;;;;;;;;;;;;5085988;28;19924;-65
2021/11/17 11:39:03;;;;;;;;;;;;;;;;;;5086204;28;19924;-67
2021/11/17 11:41:30;;;;;;;;;;;;;;;;;;5090491;28;20314;-66
2021/11/17 11:43:57;;;;;;;;;;;;;;;;;;5081303;28;20291;-66
2021/11/17 11:46:23;;;;;;;;;;;;;;;;;;5088974;28;19928;-65
2021/11/17 11:48:50;;;;;;;;;;;;;;;;;;5085311;28;19933;-66
2021/11/17 11:51:17;;;;;;;;;;;;;;;;;;5089300;28;19931;-66
2021/11/17 11:53:44;;;;;;;;;;;;;;;;;;5084369;28;19935;-67
2021/11/17 11:56:11;;;;;;;;;;;;;;;;;;5083018;28;20308;-66
2021/11/17 11:58:38;;;;;;;;;;;;;;;;;;5086941;28;19939;-67
2021/11/17 12:01:05;;;;;;;;;;;;;;;;;;5090959;28;20357;-67
2021/11/17 12:03:34;;;;;;;;;;;;;;;;;;5079538;28;20962;-65
2021/11/17 12:06:01;;;;;;;;;;;;;;;;;;5080179;28;20406;-66
2021/11/17 12:08:28;;;;;;;;;;;;;;;;;;5091006;28;19924;-66
2021/11/17 12:10:57;;;;;;;;;;;;;;;;;;5088769;28;19924;-66
2021/11/17 12:13:24;;;;;;;;;;;;;;;;;;5084779;28;19932;-66
2021/11/17 12:15:51;;;;;;;;;;;;;;;;;;5092322;28;19932;-65
2021/11/17 12:18:18;;;;;;;;;;;;;;;;;;5080550;28;19935;-66
2021/11/17 12:20:45;;;;;;;;;;;;;;;;;;5084870;28;19985;-66
2021/11/17 12:23:12;;;;;;;;;;;;;;;;;;5077160;28;19931;-66
2021/11/17 12:25:39;;;;;;;;;;;;;;;;;;5083513;28;19924;-65
2021/11/17 12:28:06;;;;;;;;;;;;;;;;;;5090994;28;19932;-66
2021/11/17 12:30:33;;;;;;;;;;;;;;;;;;5097021;28;19924;-66
2021/11/17 12:33:00;;;;;;;;;;;;;;;;;;5085966;28;20376;-65
2021/11/17 12:35:27;;;;;;;;;;;;;;;;;;5092788;28;19924;-66
2021/11/17 12:37:54;;;;;;;;;;;;;;;;;;5092920;28;19934;-65
2021/11/17 12:40:20;;;;;;;;;;;;;;;;;;5093126;28;19964;-67
2021/11/17 12:42:47;;;;;;;;;;;;;;;;;;5090518;28;19924;-65
2021/11/17 12:45:14;;;;;;;;;;;;;;;;;;5090811;28;19924;-66
2021/11/17 12:47:41;;;;;;;;;;;;;;;;;;5092717;28;20378;-65
2021/11/17 12:50:08;;;;;;;;;;;;;;;;;;5094193;28;19928;-66
2021/11/17 12:52:35;;;;;;;;;;;;;;;;;;5088202;28;19924;-66
2021/11/17 12:55:02;;;;;;;;;;;;;;;;;;5091263;28;19925;-66
2021/11/17 12:57:29;;;;;;;;;;;;;;;;;;5090150;28;19924;-66
2021/11/17 12:59:56;;;;;;;;;;;;;;;;;;5093361;28;19928;-66
2021/11/17 13:02:23;;;;;;;;;;;;;;;;;;5093671;28;20140;-66
2021/11/17 13:04:50;;;;;;;;;;;;;;;;;;5094207;28;19924;-66
2021/11/17 13:07:17;;;;;;;;;;;;;;;;;;5103020;28;19924;-66
2021/11/17 13:09:45;;;;;;;;;;;;;;;;;;5101894;28;19924;-66
2021/11/17 13:12:13;;;;;;;;;;;;;;;;;;5087053;28;19979;-66
2021/11/17 13:14:40;;;;;;;;;;;;;;;;;;5086219;28;20376;-66
2021/11/17 13:17:09;;;;;;;;;;;;;;;;;;5102251;28;19947;-66
2021/11/17 13:19:35;;;;;;;;;;;;;;;;;;5100857;28;19931;-66
2021/11/17 13:22:02;;;;;;;;;;;;;;;;;;5086696;28;19932;-66
2021/11/17 13:24:29;;;;;;;;;;;;;;;;;;5087770;28;20007;-66
2021/11/17 13:26:56;;;;;;;;;;;;;;;;;;5092427;28;19924;-66
2021/11/17 13:29:23;;;;;;;;;;;;;;;;;;5087063;28;20511;-66
2021/11/17 13:31:50;;;;;;;;;;;;;;;;;;5090751;28;19924;-66
2021/11/17 13:34:17;;;;;;;;;;;;;;;;;;5081571;28;19944;-66
2021/11/17 13:36:44;;;;;;;;;;;;;;;;;;5093467;28;20026;-66
2021/11/17 13:39:11;;;;;;;;;;;;;;;;;;5100673;28;19924;-66
2021/11/17 13:41:40;;;;;;;;;;;;;;;;;;5108760;28;19924;-66
2021/11/17 13:44:07;;;;;;;;;;;;;;;;;;5073386;28;19924;-66
2021/11/17 13:46:34;;;;;;;;;;;;;;;;;;5096562;28;19924;-66
2021/11/17 13:49:01;;;;;;;;;;;;;;;;;;5080862;28;19924;-66
2021/11/17 13:51:28;;;;;;;;;;;;;;;;;;5104605;28;20014;-67
2021/11/17 13:53:55;;;;;;;;;;;;;;;;;;5094355;28;19924;-66
2021/11/17 13:56:24;;;;;;;;;;;;;;;;;;5081992;28;19924;-67
2021/11/17 13:58:51;;;;;;;;;;;;;;;;;;5091876;28;20023;-66
2021/11/17 14:01:18;;;;;;;;;;;;;;;;;;5093114;28;20050;-66
2021/11/17 14:03:45;;;;;;;;;;;;;;;;;;5091666;28;19962;-67
2021/11/17 14:06:12;;;;;;;;;;;;;;;;;;5095735;28;20356;-67
2021/11/17 14:08:39;;;;;;;;;;;;;;;;;;5095208;28;19971;-67
2021/11/17 14:11:06;;;;;;;;;;;;;;;;;;5092830;28;19928;-67
2021/11/17 14:13:33;;;;;;;;;;;;;;;;;;5093118;28;19947;-66
2021/11/17 14:16:00;;;;;;;;;;;;;;;;;;5093175;28;19932;-66
2021/11/17 14:18:28;;;;;;;;;;;;;;;;;;5092973;28;20440;-66
2021/11/17 14:20:55;;;;;;;;;;;;;;;;;;5090701;28;19932;-67
2021/11/17 14:23:22;;;;;;;;;;;;;;;;;;5077851;28;19960;-67
2021/11/17 14:25:49;;;;;;;;;;;;;;;;;;5088944;28;20292;-68
2021/11/17 14:28:16;;;;;;;;;;;;;;;;;;5096303;28;19924;-67
2021/11/17 14:30:43;;;;;;;;;;;;;;;;;;5092807;28;19924;-67
2021/11/17 14:33:10;;;;;;;;;;;;;;;;;;5092871;28;20014;-67
2021/11/17 14:35:37;;;;;;;;;;;;;;;;;;5096792;28;20335;-67
2021/11/17 14:38:05;;;;;;;;;;;;;;;;;;5082332;28;19928;-67
2021/11/17 14:40:32;;;;;;;;;;;;;;;;;;5092245;28;19947;-67
2021/11/17 14:42:59;;;;;;;;;;;;;;;;;;5095418;28;19927;-67
2021/11/17 14:45:26;;;;;;;;;;;;;;;;;;5093784;28;20010;-67
2021/11/17 14:47:53;;;;;;;;;;;;;;;;;;5088027;28;19924;-67
2021/11/17 14:50:20;;;;;;;;;;;;;;;;;;5087766;28;19923;-67
2021/11/17 14:52:48;;;;;;;;;;;;;;;;;;5087043;28;19924;-67
2021/11/17 14:55:15;;;;;;;;;;;;;;;;;;5098641;28;19950;-67
2021/11/17 14:57:42;;;;;;;;;;;;;;;;;;5102077;28;19930;-67
2021/11/17 15:00:09;;;;;;;;;;;;;;;;;;5095418;28;19924;-67
2021/11/17 15:02:36;;;;;;;;;;;;;;;;;;5090369;28;19924;-67
2021/11/17 15:05:02;;;;;;;;;;;;;;;;;;5092039;28;20352;-67
2021/11/17 15:07:29;;;;;;;;;;;;;;;;;;5092349;28;19924;-67
2021/11/17 15:09:56;;;;;;;;;;;;;;;;;;5092784;28;19946;-67
2021/11/17 15:12:26;;;;;;;;;;;;;;;;;;5084776;28;20392;-67
2021/11/17 15:14:53;;;;;;;;;;;;;;;;;;5084621;28;19925;-67
2021/11/17 15:17:20;;;;;;;;;;;;;;;;;;5099224;28;20331;-67
2021/11/17 15:19:47;;;;;;;;;;;;;;;;;;5096987;28;19939;-67
2021/11/17 15:22:14;;;;;;;;;;;;;;;;;;5090377;28;20019;-67
2021/11/17 15:24:40;;;;;;;;;;;;;;;;;;5094330;28;20006;-67
2021/11/17 15:27:08;;;;;;;;;;;;;;;;;;5089902;28;19924;-67
2021/11/17 15:29:35;;;;;;;;;;;;;;;;;;5093620;28;20314;-67
2021/11/17 15:32:02;;;;;;;;;;;;;;;;;;5090644;28;19959;-67
2021/11/17 15:34:29;;;;;;;;;;;;;;;;;;5088871;28;19986;-66
2021/11/17 15:36:56;;;;;;;;;;;;;;;;;;5090841;28;19932;-67
2021/11/17 15:39:23;;;;;;;;;;;;;;;;;;5089622;28;19924;-66
2021/11/17 15:41:50;;;;;;;;;;;;;;;;;;5086926;28;20373;-67
2021/11/17 15:44:17;;;;;;;;;;;;;;;;;;5093701;28;20027;-67
2021/11/17 15:46:44;;;;;;;;;;;;;;;;;;5085969;28;20307;-67
2021/11/17 15:49:12;;;;;;;;;;;;;;;;;;5090058;28;20312;-66
2021/11/17 15:51:41;;;;;;;;;;;;;;;;;;5083955;28;19928;-66
2021/11/17 15:54:08;;;;;;;;;;;;;;;;;;5082516;28;20027;-67
2021/11/17 15:56:35;;;;;;;;;;;;;;;;;;5091343;28;20335;-67
2021/11/17 15:59:02;;;;;;;;;;;;;;;;;;5090188;28;19924;-67
2021/11/17 16:01:29;;;;;;;;;;;;;;;;;;5081806;28;19931;-67
2021/11/17 16:03:56;;;;;;;;;;;;;;;;;;5087004;28;20402;-67
2021/11/17 16:06:23;;;;;;;;;;;;;;;;;;5086105;28;20015;-69
2021/11/17 16:08:50;;;;;;;;;;;;;;;;;;5091441;28;19924;-67
2021/11/17 16:11:17;;;;;;;;;;;;;;;;;;5091291;28;19925;-67
2021/11/17 16:13:44;;;;;;;;;;;;;;;;;;5089403;28;19924;-67
2021/11/17 16:16:11;;;;;;;;;;;;;;;;;;5093532;28;19924;-67
2021/11/17 16:18:38;;;;;;;;;;;;;;;;;;5085851;28;19924;-67
2021/11/17 16:21:06;;;;;;;;;;;;;;;;;;5088170;28;19928;-67
2021/11/17 16:26:18;;;;;;;;;;;;;;;;;;5107102;28;20031;-67
2021/11/17 16:28:45;;;;;;;;;;;;;;;;;;5100359;28;19935;-67
2021/11/17 16:31:12;;;;;;;;;;;;;;;;;;5097807;28;20033;-67
2021/11/17 16:33:39;;;;;;;;;;;;;;;;;;5095577;28;20006;-67
2021/11/17 16:36:07;;;;;;;;;;;;;;;;;;5084125;28;19924;-69
2021/11/17 16:38:34;;;;;;;;;;;;;;;;;;5098280;28;20022;-67
2021/11/17 16:41:01;;;;;;;;;;;;;;;;;;5098167;28;19930;-67
2021/11/17 16:43:28;;;;;;;;;;;;;;;;;;5100411;28;19923;-67
2021/11/17 16:45:55;;;;;;;;;;;;;;;;;;5085995;28;20018;-67
2021/11/17 16:48:25;;;;;;;;;;;;;;;;;;5094766;28;19924;-67
2021/11/17 16:50:51;;;;;;;;;;;;;;;;;;5108844;28;19997;-67
2021/11/17 16:53:20;;;;;;;;;;;;;;;;;;5105219;28;19974;-67
2021/11/17 16:55:47;;;;;;;;;;;;;;;;;;5092773;28;20346;-67
2021/11/17 16:58:14;;;;;;;;;;;;;;;;;;5093977;28;19924;-67
2021/11/17 17:00:41;;;;;;;;;;;;;;;;;;5097884;28;19924;-67
2021/11/17 17:03:08;;;;;;;;;;;;;;;;;;5093046;28;19924;-67
2021/11/17 17:05:35;;;;;;;;;;;;;;;;;;5082475;28;19974;-67
2021/11/17 17:08:02;;;;;;;;;;;;;;;;;;5093540;28;20308;-67
2021/11/17 17:10:29;;;;;;;;;;;;;;;;;;5093869;28;19967;-67
2021/11/17 17:12:56;;;;;;;;;;;;;;;;;;5095027;28;19924;-67
2021/11/17 17:15:24;;;;;;;;;;;;;;;;;;5083476;28;19925;-66
2021/11/17 17:17:51;;;;;;;;;;;;;;;;;;5094280;28;19928;-66
2021/11/17 17:20:18;;;;;;;;;;;;;;;;;;5093908;28;20035;-66
2021/11/17 17:22:45;;;;;;;;;;;;;;;;;;5093740;28;19939;-66
2021/11/17 17:25:12;;;;;;;;;;;;;;;;;;5096911;28;19924;-67
2021/11/17 17:27:39;;;;;;;;;;;;;;;;;;5093741;28;19987;-67
2021/11/17 17:30:06;;;;;;;;;;;;;;;;;;5097635;28;19924;-67
2021/11/17 17:32:33;;;;;;;;;;;;;;;;;;5097205;28;19924;-67
2021/11/17 17:35:00;;;;;;;;;;;;;;;;;;5093682;28;19924;-68
2021/11/17 17:37:27;;;;;;;;;;;;;;;;;;5093895;28;20015;-67
2021/11/17 17:39:54;;;;;;;;;;;;;;;;;;5095791;28;19935;-67
2021/11/17 17:42:21;;;;;;;;;;;;;;;;;;5083324;28;19925;-67
2021/11/17 17:44:48;;;;;;;;;;;;;;;;;;5087643;28;19930;-67
2021/11/17 17:47:15;;;;;;;;;;;;;;;;;;5093946;28;20023;-67
2021/11/17 17:49:44;;;;;;;;;;;;;;;;;;5101133;28;20269;-66
2021/11/17 17:52:12;;;;;;;;;;;;;;;;;;5084275;28;19959;-67
2021/11/17 17:54:39;;;;;;;;;;;;;;;;;;5092077;28;20403;-66
2021/11/17 17:57:06;;;;;;;;;;;;;;;;;;5093262;28;20019;-66
2021/11/17 17:59:33;;;;;;;;;;;;;;;;;;5094676;28;19925;-67
2021/11/17 18:02:00;;;;;;;;;;;;;;;;;;5099658;28;19932;-67
2021/11/17 18:04:27;;;;;;;;;;;;;;;;;;5099008;28;19930;-67
2021/11/17 18:06:54;;;;;;;;;;;;;;;;;;5074263;28;19950;-67
2021/11/17 18:09:21;;;;;;;;;;;;;;;;;;5095830;28;20384;-67
2021/11/17 18:11:48;;;;;;;;;;;;;;;;;;5093560;28;19930;-68
2021/11/17 18:14:15;;;;;;;;;;;;;;;;;;5089428;28;20003;-68
2021/11/17 18:16:42;;;;;;;;;;;;;;;;;;5083939;28;19946;-68
2021/11/17 18:19:09;;;;;;;;;;;;;;;;;;5092982;28;19940;-67
2021/11/17 18:21:36;;;;;;;;;;;;;;;;;;5090766;28;19930;-68
2021/11/17 18:24:03;;;;;;;;;;;;;;;;;;5088270;28;19931;-68
2021/11/17 18:26:31;;;;;;;;;;;;;;;;;;5083537;28;20010;-67
2021/11/17 18:28:58;;;;;;;;;;;;;;;;;;5092747;28;19973;-67
2021/11/17 18:31:25;;;;;;;;;;;;;;;;;;5100291;28;19923;-67
2021/11/17 18:33:52;;;;;;;;;;;;;;;;;;5105260;28;19931;-68
2021/11/17 18:36:19;;;;;;;;;;;;;;;;;;5090974;28;20344;-68
2021/11/17 18:38:46;;;;;;;;;;;;;;;;;;5088443;28;20225;-66
2021/11/17 18:41:13;;;;;;;;;;;;;;;;;;5082325;28;20015;-67
2021/11/17 18:43:40;;;;;;;;;;;;;;;;;;5085480;28;19946;-67
2021/11/17 18:46:07;;;;;;;;;;;;;;;;;;5083446;28;20015;-67
2021/11/17 18:48:34;;;;;;;;;;;;;;;;;;5092049;28;19924;-67
2021/11/17 18:51:02;;;;;;;;;;;;;;;;;;5098084;28;19924;-67
2021/11/17 18:53:29;;;;;;;;;;;;;;;;;;5086965;28;19959;-68
2021/11/17 18:55:56;;;;;;;;;;;;;;;;;;5085889;28;20478;-67
2021/11/17 18:58:23;;;;;;;;;;;;;;;;;;5080969;28;19924;-67
2021/11/17 19:00:50;;;;;;;;;;;;;;;;;;5084576;28;19931;-67
2021/11/17 19:03:17;;;;;;;;;;;;;;;;;;5084508;28;19931;-66
2021/11/17 19:05:44;;;;;;;;;;;;;;;;;;5080735;28;19950;-67
2021/11/17 19:08:11;;;;;;;;;;;;;;;;;;5082300;28;19925;-67
2021/11/17 19:10:38;;;;;;;;;;;;;;;;;;5089556;28;19971;-66
2021/11/17 19:13:05;;;;;;;;;;;;;;;;;;5086990;28;19951;-66
2021/11/17 19:15:33;;;;;;;;;;;;;;;;;;5084795;28;19924;-66
2021/11/17 19:18:00;;;;;;;;;;;;;;;;;;5074656;28;19931;-66